Air Navigation Services of Czech Republic  
Last data update:  23.06.2024 07:01:42 UTC česká verze
   METEO Page displayed:  23.06.2024 07:02:32 UTC  
vysvětlivky
METAR EDAC 230650Z AUTO 32005KT 260V340 9999 // SCT046/// 18/14 Q1018=
METAR EDDB 230650Z AUTO 29010KT 270V330 CAVOK 19/12 Q1017 NOSIG=
METAR EDDC 230650Z AUTO 30006KT 220V360 9999 FEW048 19/14 Q1018 NOSIG=
METAR EDDE 230650Z AUTO VRB02KT CAVOK 18/12 Q1019 NOSIG=
METAR EDDF 230650Z AUTO VRB02KT CAVOK 18/14 Q1019 NOSIG=
METAR EDDM 230650Z AUTO 26007KT 9999 BKN005 OVC009 13/12 Q1019 BECMG SCT009 BKN012=
METAR EDDN 230650Z AUTO 35003KT 280V060 9999 BKN010 BKN015 16/13 Q1019 BECMG SCT012 BKN020=
METAR EDDP 230650Z AUTO 30005KT 260V350 CAVOK 19/14 Q1018 NOSIG=
METAR EDQM 230650Z VRB04KT 9999 FEW017 16/12 Q1019=
METAR EPBY 230630Z 27012KT 9999 BKN032 15/12 Q1013=
METAR EPGD 230630Z 28016KT 9999 BKN009 14/13 Q1009=
METAR EPKK 230630Z 27007KT CAVOK 20/13 Q1015=
METAR EPKT 230630Z 30007KT 260V350 CAVOK 19/12 Q1015=
METAR EPLB 230630Z 32005KT 240V340 CAVOK 20/13 Q1013=
METAR EPLL 230630Z 27011KT CAVOK 18/11 Q1014=
METAR EPMO 230630Z 27017KT CAVOK 19/10 Q1012=
METAR EPPO 230630Z 30012KT 9999 FEW020 18/11 Q1015=
METAR EPRZ 230630Z 28005KT 250V330 CAVOK 19/13 Q1014=
METAR EPWA 230630Z 29012KT 250V310 CAVOK 20/11 Q1012 NOSIG=
METAR EPWR 230630Z 31011KT CAVOK 19/13 Q1016=
METAR LHBP 230630Z 04005KT 010V100 9999 SCT012 BKN028 21/18 Q1013 NOSIG=
METAR LHPR 230615Z AUTO 34013KT 310V010 CAVOK 21/13 Q1014 NOSIG=
METAR LHSM 230615Z AUTO 36009KT 320V050 CAVOK 22/13 Q1013 NOSIG=
METAR LKBC 230700Z AUTO 25003KT 220V300 CAVOK 19/11 Q1018=
METAR LKCR 230700Z AUTO 33003KT 280V030 CAVOK 19/12 Q1017=
METAR LKCS 230700Z AUTO 36003KT 290V070 CAVOK 18/13 Q1018=
METAR LKCV 230700Z 30004KT CAVOK 19/13 Q1017 NOSIG RMK BLU BLU=
METAR LKKB 230700Z 34004KT 300V030 CAVOK 19/12 Q1018 NOSIG RMK BLU BLU=
METAR LKKU NIL
METAR LKKV 230700Z 31004KT 280V350 9999 FEW017 BKN046 16/12 Q1019=
METAR LKLN 230630Z AUTO 18003KT 110V210 CAVOK 19/13 Q1018=
METAR LKMT 230700Z 03003KT 320V070 9999 FEW033 20/13 Q1016 NOSIG=
METAR LKNA 230700Z 34007KT 320V040 9999 FEW029 SCT140 BKN220 19/12 Q1017 RMK BLACK=
METAR LKPD 230700Z 29004KT 250V340 CAVOK 20/12 Q1017 NOSIG RMK BLU BLU=
METAR LKPJ 230700Z AUTO 35006KT CAVOK 21/11 Q1016=
METAR LKPR 230700Z 03006KT 350V070 9999 FEW027 19/12 Q1018 NOSIG=
METAR LKTB 230700Z 33006KT 290V360 CAVOK 21/11 Q1016 NOSIG=
METAR LKTH 230630Z AUTO VRB03KT CAVOK 18/10 Q1017=
METAR LKVO NIL
METAR LOWG 230650Z AUTO 36009KT 9999 FEW070 BKN080 22/12 Q1015 NOSIG=
METAR LOWI 230650Z VRB01KT 9999 FEW010 SCT025 BKN040 13/11 Q1019 NOSIG=
METAR LOWK 230650Z AUTO 01004KT 340V040 9999 FEW048 BKN050 20/12 Q1016 NOSIG=
METAR LOWL 230650Z AUTO 25008KT 9999 FEW017 BKN019 17/13 Q1018 NOSIG=
METAR LOWS 230650Z AUTO 03003KT 340V080 9999 FEW016 SCT020 BKN024 15/12 Q1019 NOSIG=
METAR LOWW 230650Z 32011KT CAVOK 22/13 Q1016 NOSIG=
METAR LOXT 230650Z 25009KT 40KM FEW030CU SCT130AC 21/14 Q1016 RMK SCT=
METAR LOXZ 230650Z 11003KT 9999 FEW035 BKN055 17/12 Q1017=
METAR LZIB 230630Z 36012KT CAVOK 22/11 Q1015 NOSIG=
METAR LZKZ 230630Z 03014KT 9999 FEW020 21/14 Q1013 NOSIG=
METAR LZMC 230600Z 01004KT CAVOK 19/13 Q1016=
METAR LZPP 230630Z 36010KT CAVOK 21/12 Q1014=
METAR LZSL 230600Z 21004KT 9999 SCT050 19/16 Q1013=
METAR LZTT 230630Z 11003KT 060V170 9999 FEW013 BKN026 16/12 Q1015 NOSIG=
METAR LZZI 230630Z 05006KT 340V110 9999 FEW035 20/11 Q1015=